Time;durP1;ratioP1;P1;durP2;ratioP2;P2;SDS_P1;SDS_P2;PMS_P1;PMS_P2;Temp;Humidity;BMP_temperature;BMP_pressure;BME280_temperature;BME280_humidity;BME280_pressure;Samples;Min_cycle;Max_cycle;Signal;HPM_P1;HPM_P2
2024/04/11 00:02:10;;;;;;;8.93;2.23;;;7.00;99.90;;;;;;5380056;26;20219;-65
2024/04/11 00:04:36;;;;;;;3.60;2.50;;;7.00;99.90;;;;;;5379944;26;20216;-65
2024/04/11 00:07:01;;;;;;;5.20;2.70;;;7.00;99.90;;;;;;5379632;26;20231;-65
2024/04/11 00:09:27;;;;;;;2.57;2.37;;;7.00;99.90;;;;;;5381087;26;22069;-66
2024/04/11 00:11:53;;;;;;;6.93;3.33;;;7.00;99.90;;;;;;5393873;26;20322;-66
2024/04/11 00:14:18;;;;;;;6.50;2.90;;;7.00;99.90;;;;;;5387429;26;20466;-65
2024/04/11 00:16:44;;;;;;;5.20;3.10;;;7.00;99.90;;;;;;5381559;26;20721;-66
2024/04/11 00:19:09;;;;;;;3.93;3.53;;;7.00;99.90;;;;;;5391759;26;20224;-65
2024/04/11 00:21:35;;;;;;;4.33;3.47;;;6.90;99.90;;;;;;5401592;26;20223;-66
2024/04/11 00:24:00;;;;;;;5.70;2.40;;;6.90;99.90;;;;;;5380065;26;20216;-66
2024/04/11 00:26:26;;;;;;;4.13;3.20;;;6.90;99.90;;;;;;5379792;26;20321;-65
2024/04/11 00:28:53;;;;;;;4.10;2.53;;;6.90;99.90;;;;;;5381904;26;20267;-65
2024/04/11 00:31:18;;;;;;;6.73;3.07;;;6.90;99.90;;;;;;5405442;26;20509;-65
2024/04/11 00:33:54;;;;;;;4.50;3.20;;;6.80;99.90;;;;;;5384635;26;20548;-65
2024/04/11 00:36:24;;;;;;;4.30;2.90;;;6.90;99.90;;;;;;5399596;26;20320;-65
2024/04/11 00:38:51;;;;;;;3.77;3.10;;;6.90;99.90;;;;;;5403257;26;20981;-66
2024/04/11 00:41:19;;;;;;;5.43;3.70;;;6.80;99.90;;;;;;5371052;26;20458;-65
2024/04/11 00:43:45;;;;;;;3.80;2.53;;;6.80;99.90;;;;;;5382590;26;20990;-65
2024/04/11 00:46:11;;;;;;;3.40;3.10;;;6.70;99.90;;;;;;5393334;26;20456;-65
2024/04/11 00:48:39;;;;;;;7.73;3.73;;;6.70;99.90;;;;;;5395190;26;20737;-65
2024/04/11 00:51:07;;;;;;;8.20;3.37;;;6.70;99.90;;;;;;5389256;26;20708;-65
2024/04/11 00:53:32;;;;;;;5.50;3.10;;;6.70;99.90;;;;;;5383085;26;20510;-65
2024/04/11 00:55:58;;;;;;;4.63;3.60;;;6.80;99.90;;;;;;5408412;26;20527;-65
2024/04/11 00:58:25;;;;;;;3.97;3.60;;;6.80;99.90;;;;;;5389881;26;20238;-65
2024/04/11 01:00:52;;;;;;;6.13;3.63;;;6.70;99.90;;;;;;5412509;26;20226;-65
2024/04/11 01:03:18;;;;;;;5.67;4.43;;;6.80;99.90;;;;;;5399842;26;20460;-65
2024/04/11 01:05:43;;;;;;;4.30;3.40;;;6.80;99.90;;;;;;5389257;26;20520;-65
2024/04/11 01:08:09;;;;;;;6.87;3.50;;;6.90;99.90;;;;;;5392710;26;20867;-65
2024/04/11 01:10:37;;;;;;;5.27;3.80;;;6.90;99.90;;;;;;5384899;26;20219;-65
2024/04/11 01:13:06;;;;;;;4.67;2.80;;;6.90;99.90;;;;;;5384633;26;20721;-65
2024/04/11 01:15:35;;;;;;;13.00;3.80;;;6.80;99.90;;;;;;5367805;26;20446;-65
2024/04/11 01:18:01;;;;;;;7.10;3.37;;;6.70;99.90;;;;;;5381444;26;20470;-65
2024/04/11 01:20:27;;;;;;;4.77;3.10;;;6.70;99.90;;;;;;5382847;26;20578;-65
2024/04/11 01:22:52;;;;;;;5.20;3.17;;;6.70;99.90;;;;;;5382611;26;20474;-65
2024/04/11 01:25:18;;;;;;;4.07;3.40;;;6.60;99.90;;;;;;5383306;26;20461;-65
2024/04/11 01:27:44;;;;;;;5.10;3.43;;;6.50;99.90;;;;;;5381982;26;20221;-65
2024/04/11 01:30:11;;;;;;;6.93;3.70;;;6.50;99.90;;;;;;5385185;26;20528;-65
2024/04/11 01:32:37;;;;;;;7.50;2.97;;;6.50;99.90;;;;;;5390834;26;20468;-65
2024/04/11 01:35:04;;;;;;;5.50;3.10;;;6.50;99.90;;;;;;5409699;26;20862;-65
2024/04/11 01:37:29;;;;;;;10.47;3.80;;;6.50;99.90;;;;;;5383125;26;20450;-66
2024/04/11 01:39:56;;;;;;;3.83;3.43;;;6.50;99.90;;;;;;5398889;26;20453;-65
2024/04/11 01:42:21;;;;;;;6.40;3.63;;;6.60;99.90;;;;;;5385152;26;20228;-65
2024/04/11 01:44:47;;;;;;;9.10;3.73;;;6.60;99.90;;;;;;5387569;26;20519;-66
2024/04/11 01:47:15;;;;;;;3.27;2.97;;;6.50;99.90;;;;;;5401267;26;20240;-65
2024/04/11 01:49:44;;;;;;;5.60;3.60;;;6.50;99.90;;;;;;5381286;26;20216;-65
2024/04/11 01:52:10;;;;;;;5.27;3.50;;;6.40;99.90;;;;;;5382850;26;20938;-63
2024/04/11 01:54:39;;;;;;;8.40;3.67;;;6.30;99.90;;;;;;5382521;26;20454;-63
2024/04/11 01:57:06;;;;;;;5.63;4.17;;;6.30;99.90;;;;;;5381452;26;20585;-66
2024/04/11 01:59:33;;;;;;;7.40;3.40;;;6.30;99.90;;;;;;5402137;26;20474;-65
2024/04/11 02:01:59;;;;;;;6.20;4.20;;;6.20;99.90;;;;;;5391949;26;20983;-64
2024/04/11 02:04:30;;;;;;;4.57;3.80;;;6.10;99.90;;;;;;5403313;26;20510;-65
2024/04/11 02:06:57;;;;;;;12.10;4.10;;;6.10;99.90;;;;;;5381424;26;20450;-66
2024/04/11 02:09:23;;;;;;;4.67;3.63;;;6.00;99.90;;;;;;5383978;26;20466;-65
2024/04/11 02:11:53;;;;;;;6.20;3.73;;;6.10;99.90;;;;;;5408268;26;20521;-65
2024/04/11 02:14:22;;;;;;;5.10;3.27;;;6.10;99.90;;;;;;5395136;26;20457;-65
2024/04/11 02:16:50;;;;;;;3.17;2.97;;;6.10;99.90;;;;;;5398880;26;20454;-64
2024/04/11 02:19:16;;;;;;;3.50;2.80;;;6.10;99.90;;;;;;5390802;26;20503;-65
2024/04/11 02:21:42;;;;;;;5.13;2.83;;;6.00;99.90;;;;;;5399167;26;20462;-65
2024/04/11 02:24:08;;;;;;;11.20;3.77;;;6.00;99.90;;;;;;5386498;26;20565;-66
2024/04/11 02:26:34;;;;;;;4.23;2.83;;;5.90;99.90;;;;;;5380811;26;20454;-65
2024/04/11 02:29:06;;;;;;;8.90;3.30;;;5.90;99.90;;;;;;5386494;26;20511;-65
2024/04/11 02:31:35;;;;;;;3.47;3.17;;;5.90;99.90;;;;;;5399518;26;20506;-64
2024/04/11 02:34:00;;;;;;;2.97;2.73;;;5.90;99.90;;;;;;5386817;26;20521;-65
2024/04/11 02:36:32;;;;;;;5.70;3.10;;;5.90;99.90;;;;;;5385285;26;20457;-65
2024/04/11 02:38:59;;;;;;;3.70;3.17;;;5.90;99.90;;;;;;5384555;26;20337;-64
2024/04/11 02:41:27;;;;;;;4.50;2.83;;;5.80;99.90;;;;;;5395099;26;20454;-65
2024/04/11 02:43:53;;;;;;;5.97;2.63;;;5.80;99.90;;;;;;5383628;26;20466;-65
2024/04/11 02:46:19;;;;;;;6.30;3.90;;;5.70;99.90;;;;;;5392950;26;20783;-66
2024/04/11 02:48:45;;;;;;;4.63;3.30;;;5.70;99.90;;;;;;5381750;26;20450;-65
2024/04/11 02:51:12;;;;;;;4.10;2.37;;;5.60;99.90;;;;;;5383558;26;20619;-65
2024/04/11 02:53:42;;;;;;;5.63;4.10;;;5.60;99.90;;;;;;5397013;26;20518;-64
2024/04/11 02:56:09;;;;;;;7.60;3.50;;;5.60;99.90;;;;;;5395762;26;20474;-66
2024/04/11 02:58:35;;;;;;;5.10;3.17;;;5.70;99.90;;;;;;5389575;26;20446;-65
2024/04/11 03:01:03;;;;;;;5.40;2.90;;;5.70;99.90;;;;;;5381190;26;20518;-65
2024/04/11 03:03:32;;;;;;;5.67;3.40;;;5.70;99.90;;;;;;5394724;26;20454;-63
2024/04/11 03:06:07;;;;;;;8.00;2.80;;;5.60;99.90;;;;;;5379753;26;20505;-64
2024/04/11 03:08:33;;;;;;;5.90;3.80;;;5.60;99.90;;;;;;5402342;26;20919;-64
2024/04/11 03:11:01;;;;;;;3.43;2.73;;;5.60;99.90;;;;;;5387147;26;20458;-64
2024/04/11 03:13:27;;;;;;;8.60;3.37;;;5.50;99.90;;;;;;5396568;26;20512;-65
2024/04/11 03:15:59;;;;;;;3.43;3.13;;;5.50;99.90;;;;;;5385361;26;20834;-64
2024/04/11 03:18:25;;;;;;;4.00;3.13;;;5.40;99.90;;;;;;5392882;26;20792;-65
2024/04/11 03:20:55;;;;;;;8.03;3.87;;;5.40;99.90;;;;;;5388587;26;20464;-64
2024/04/11 03:23:22;;;;;;;4.97;3.33;;;5.40;99.90;;;;;;5409384;26;20231;-65
2024/04/11 03:25:49;;;;;;;5.33;3.60;;;5.40;99.90;;;;;;5389769;26;20458;-65
2024/04/11 03:28:15;;;;;;;3.93;3.50;;;5.50;99.90;;;;;;5379919;26;20497;-65
2024/04/11 03:30:41;;;;;;;8.83;3.37;;;5.40;99.90;;;;;;5387701;26;20511;-66
2024/04/11 03:33:07;;;;;;;8.30;3.87;;;5.40;99.90;;;;;;5408745;26;20961;-64
2024/04/11 03:35:32;;;;;;;4.30;3.10;;;5.40;99.90;;;;;;5399828;26;20281;-64
2024/04/11 03:37:58;;;;;;;5.67;3.13;;;5.40;99.90;;;;;;5379620;26;20878;-66
2024/04/11 03:40:24;;;;;;;6.43;3.53;;;5.40;99.90;;;;;;5382709;26;20283;-65
2024/04/11 03:42:50;;;;;;;4.90;3.97;;;5.30;99.90;;;;;;5394555;26;20472;-66
2024/04/11 03:45:22;;;;;;;5.10;3.57;;;5.40;99.90;;;;;;5388521;26;20577;-65
2024/04/11 03:47:49;;;;;;;9.13;3.83;;;5.30;99.90;;;;;;5381430;26;20270;-64
2024/04/11 03:50:15;;;;;;;8.37;3.97;;;5.30;99.90;;;;;;5381065;26;20470;-64
2024/04/11 03:52:41;;;;;;;7.17;3.50;;;5.20;99.90;;;;;;5390966;26;20812;-64
2024/04/11 03:55:12;;;;;;;4.17;3.20;;;5.20;99.90;;;;;;5381343;26;20518;-65
2024/04/11 03:57:38;;;;;;;4.73;3.57;;;5.20;99.90;;;;;;5383167;26;20588;-66
2024/04/11 04:00:07;;;;;;;4.33;3.87;;;5.20;99.90;;;;;;5399306;26;20448;-67
2024/04/11 04:02:33;;;;;;;7.43;3.80;;;5.30;99.90;;;;;;5402240;26;20508;-65
2024/04/11 04:04:59;;;;;;;4.57;3.57;;;5.30;99.90;;;;;;5405485;26;20466;-64
2024/04/11 04:07:28;;;;;;;6.90;4.00;;;5.30;99.90;;;;;;5379424;26;20577;-66
2024/04/11 04:09:54;;;;;;;5.17;3.60;;;5.30;99.90;;;;;;5382318;26;20282;-64
2024/04/11 04:12:20;;;;;;;7.27;4.47;;;5.20;99.90;;;;;;5397125;26;20509;-64
2024/04/11 04:14:46;;;;;;;4.90;3.90;;;5.20;99.90;;;;;;5406914;26;20454;-64
2024/04/11 04:17:12;;;;;;;4.33;3.30;;;5.20;99.90;;;;;;5379772;26;20580;-64
2024/04/11 04:19:38;;;;;;;3.70;3.40;;;5.20;99.90;;;;;;5386065;26;20219;-67
2024/04/11 04:22:08;;;;;;;9.63;3.80;;;5.20;99.90;;;;;;5395843;26;20249;-65
2024/04/11 04:24:34;;;;;;;4.67;3.50;;;5.20;99.90;;;;;;5384778;26;20536;-64
2024/04/11 04:27:00;;;;;;;11.67;3.97;;;5.20;99.90;;;;;;5379199;26;20462;-65
2024/04/11 04:29:26;;;;;;;6.17;3.63;;;5.10;99.90;;;;;;5380161;26;20212;-66
2024/04/11 04:31:52;;;;;;;5.13;3.50;;;5.10;99.90;;;;;;5382017;26;20460;-64
2024/04/11 04:34:17;;;;;;;7.10;4.37;;;5.10;99.90;;;;;;5403525;26;20947;-65
2024/04/11 04:36:43;;;;;;;8.90;3.77;;;5.10;99.90;;;;;;5377133;26;20389;-65
2024/04/11 04:39:13;;;;;;;10.17;4.17;;;5.10;99.90;;;;;;5379884;26;20767;-65
2024/04/11 04:41:39;;;;;;;4.67;3.10;;;5.10;99.90;;;;;;5378015;26;20508;-66
2024/04/11 04:44:05;;;;;;;5.80;4.10;;;5.10;99.90;;;;;;5379830;26;20462;-63
2024/04/11 04:46:32;;;;;;;14.80;4.13;;;5.00;99.90;;;;;;5378214;26;20228;-67
2024/04/11 04:49:02;;;;;;;8.10;3.40;;;5.00;99.90;;;;;;5379640;26;20501;-66
2024/04/11 04:51:28;;;;;;;5.90;4.40;;;5.00;99.90;;;;;;5379380;26;20458;-67
2024/04/11 04:53:54;;;;;;;5.57;4.03;;;5.10;99.90;;;;;;5379548;26;20518;-67
2024/04/11 04:56:23;;;;;;;6.63;4.30;;;5.10;99.90;;;;;;5379023;26;20434;-66
2024/04/11 04:58:51;;;;;;;5.80;4.13;;;5.10;99.90;;;;;;5377864;26;20572;-66
2024/04/11 05:01:17;;;;;;;4.00;3.60;;;5.10;99.90;;;;;;5376152;26;20562;-66
2024/04/11 05:03:44;;;;;;;6.40;4.80;;;5.20;99.90;;;;;;5379528;26;20482;-66
2024/04/11 05:06:13;;;;;;;6.40;5.13;;;5.10;99.90;;;;;;5379552;26;20561;-67
2024/04/11 05:08:53;;;;;;;8.70;4.53;;;5.20;99.90;;;;;;5377643;26;20446;-65
2024/04/11 05:11:21;;;;;;;7.40;4.50;;;5.20;99.90;;;;;;5379495;26;20589;-66
2024/04/11 05:13:49;;;;;;;6.50;4.80;;;5.30;99.90;;;;;;5379259;26;20450;-67
2024/04/11 05:16:18;;;;;;;8.37;4.43;;;5.40;99.90;;;;;;5378591;26;20574;-66
2024/04/11 05:18:46;;;;;;;6.97;4.60;;;5.50;99.90;;;;;;5378270;26;20529;-67
2024/04/11 05:21:16;;;;;;;8.83;4.23;;;5.60;99.90;;;;;;5378748;26;20505;-67
2024/04/11 05:23:42;;;;;;;6.07;5.03;;;5.70;99.90;;;;;;5378958;26;20446;-67
2024/04/11 05:26:23;;;;;;;7.17;5.00;;;5.80;99.90;;;;;;5381162;26;20497;-67
2024/04/11 05:28:51;;;;;;;6.17;4.80;;;5.80;99.90;;;;;;5381640;26;20780;-67
2024/04/11 05:31:17;;;;;;;4.80;3.90;;;5.90;99.90;;;;;;5397863;26;20984;-68
2024/04/11 05:33:45;;;;;;;5.67;4.50;;;6.00;99.90;;;;;;5387762;26;20514;-67
2024/04/11 05:36:17;;;;;;;11.90;5.83;;;6.10;99.90;;;;;;5384761;26;20216;-66
2024/04/11 05:38:44;;;;;;;7.50;5.37;;;6.20;99.90;;;;;;5381758;26;20573;-67
2024/04/11 05:41:10;;;;;;;11.10;5.60;;;6.30;99.90;;;;;;5381039;26;21078;-67
2024/04/11 05:43:39;;;;;;;10.60;5.00;;;6.50;99.90;;;;;;5380499;26;20510;-67
2024/04/11 05:46:05;;;;;;;8.27;6.27;;;6.70;99.90;;;;;;5385009;26;20583;-67
2024/04/11 05:48:31;;;;;;;7.87;5.63;;;6.90;99.90;;;;;;5381057;26;20948;-67
2024/04/11 05:50:58;;;;;;;5.80;5.00;;;7.00;99.90;;;;;;5384841;26;20461;-65
2024/04/11 05:53:23;;;;;;;8.20;5.50;;;7.10;99.90;;;;;;5383549;26;20462;-66
2024/04/11 05:55:51;;;;;;;8.10;5.07;;;7.30;99.90;;;;;;5400480;26;20500;-68
2024/04/11 05:58:19;;;;;;;7.67;5.70;;;7.50;99.90;;;;;;5390390;26;20228;-66
2024/04/11 06:00:49;;;;;;;9.47;5.80;;;7.60;99.90;;;;;;5388151;26;20476;-65
2024/04/11 06:03:15;;;;;;;7.43;5.40;;;7.80;99.90;;;;;;5385444;26;20565;-67
2024/04/11 06:05:41;;;;;;;11.90;6.03;;;8.00;99.90;;;;;;5384470;26;20818;-67
2024/04/11 06:08:08;;;;;;;6.90;5.23;;;8.20;99.90;;;;;;5380724;26;20457;-65
2024/04/11 06:10:34;;;;;;;9.53;5.80;;;8.40;99.90;;;;;;5381411;26;20304;-67
2024/04/11 06:13:01;;;;;;;9.40;5.60;;;8.60;99.90;;;;;;5381834;26;20465;-65
2024/04/11 06:15:27;;;;;;;8.27;6.07;;;8.70;99.90;;;;;;5381250;26;20469;-65
2024/04/11 06:17:52;;;;;;;7.27;5.53;;;8.80;99.90;;;;;;5380893;26;20586;-65
2024/04/11 06:20:21;;;;;;;10.03;6.20;;;8.90;99.90;;;;;;5380855;26;20220;-66
2024/04/11 06:22:59;;;;;;;8.63;6.13;;;9.10;99.90;;;;;;5379811;26;20258;-65
2024/04/11 06:25:25;;;;;;;9.57;5.83;;;9.30;99.90;;;;;;5381281;26;20558;-65
2024/04/11 06:27:52;;;;;;;9.17;5.70;;;9.50;99.90;;;;;;5380820;26;20434;-68
2024/04/11 06:30:19;;;;;;;8.83;5.00;;;9.70;99.90;;;;;;5381451;26;20216;-66
2024/04/11 06:32:46;;;;;;;9.47;5.77;;;9.80;99.90;;;;;;5381640;26;20470;-68
2024/04/11 06:35:13;;;;;;;12.37;5.67;;;9.90;99.90;;;;;;5381538;26;20794;-66
2024/04/11 06:37:44;;;;;;;9.20;5.77;;;10.20;99.90;;;;;;5380417;26;20490;-65
2024/04/11 06:40:12;;;;;;;10.70;5.20;;;10.40;99.90;;;;;;5381704;26;20427;-66
2024/04/11 06:42:47;;;;;;;9.80;4.90;;;10.60;99.90;;;;;;5381015;26;21019;-66
2024/04/11 06:45:14;;;;;;;12.00;5.80;;;10.80;99.90;;;;;;5381730;26;20434;-67
2024/04/11 06:47:41;;;;;;;9.70;5.37;;;10.90;99.90;;;;;;5380271;26;20458;-66
2024/04/11 06:50:06;;;;;;;9.37;5.67;;;11.10;99.90;;;;;;5381571;26;20450;-67
2024/04/11 06:52:32;;;;;;;13.50;5.03;;;11.40;99.90;;;;;;5381475;26;20514;-66
2024/04/11 06:54:58;;;;;;;9.20;4.70;;;11.50;99.90;;;;;;5378228;26;20228;-66
2024/04/11 06:57:26;;;;;;;10.43;5.20;;;11.70;99.90;;;;;;5380360;26;20212;-66
2024/04/11 06:59:52;;;;;;;11.53;5.10;;;11.80;99.90;;;;;;5381099;26;20220;-67
2024/04/11 07:02:18;;;;;;;6.67;4.80;;;11.90;99.90;;;;;;5381113;26;20564;-66
2024/04/11 07:04:43;;;;;;;17.20;5.97;;;12.10;99.90;;;;;;5381115;26;20273;-66
2024/04/11 07:07:09;;;;;;;6.03;5.33;;;12.20;99.90;;;;;;5380352;26;20639;-66
2024/04/11 07:09:38;;;;;;;11.80;4.53;;;12.40;99.90;;;;;;5381131;26;20224;-67
2024/04/11 07:12:10;;;;;;;13.47;5.30;;;12.60;99.90;;;;;;5380987;26;20523;-67
2024/04/11 07:14:40;;;;;;;9.13;5.30;;;12.70;99.90;;;;;;5380903;26;20466;-66
2024/04/11 07:17:11;;;;;;;10.93;4.17;;;12.80;99.90;;;;;;5380047;26;21031;-66
2024/04/11 07:19:42;;;;;;;8.33;5.07;;;13.00;99.90;;;;;;5381183;26;20526;-66
2024/04/11 07:22:09;;;;;;;8.97;4.70;;;13.20;99.90;;;;;;5380819;26;20986;-67
2024/04/11 07:24:36;;;;;;;5.97;4.40;;;13.50;99.90;;;;;;5380519;26;20492;-66
2024/04/11 07:27:03;;;;;;;15.33;5.23;;;13.60;99.90;;;;;;5379880;26;20434;-67
2024/04/11 07:29:29;;;;;;;7.13;5.47;;;13.70;99.90;;;;;;5380835;26;20580;-66
2024/04/11 07:31:55;;;;;;;10.67;4.87;;;13.80;99.90;;;;;;5380503;26;20970;-66
2024/04/11 07:34:23;;;;;;;5.50;4.10;;;14.00;99.90;;;;;;5379688;26;21112;-66
2024/04/11 07:36:51;;;;;;;5.33;4.63;;;14.10;99.90;;;;;;5379306;26;20567;-66
2024/04/11 07:39:17;;;;;;;5.93;5.17;;;14.30;99.90;;;;;;5380515;26;21331;-66
2024/04/11 07:41:45;;;;;;;6.23;4.50;;;14.60;99.90;;;;;;5380330;26;20576;-66
2024/04/11 07:44:17;;;;;;;10.53;4.90;;;14.80;99.90;;;;;;5380543;26;20489;-67
2024/04/11 07:46:43;;;;;;;13.23;5.57;;;15.00;99.90;;;;;;5379365;26;20510;-66
2024/04/11 07:49:10;;;;;;;7.23;4.07;;;15.00;99.40;;;;;;5379350;26;20430;-66
2024/04/11 07:51:36;;;;;;;12.27;8.07;;;15.20;98.40;;;;;;5388462;22;20502;-68
2024/04/11 07:54:04;;;;;;;15.80;7.07;;;15.40;97.60;;;;;;5355442;26;20466;-69
2024/04/11 07:56:30;;;;;;;9.47;6.80;;;15.60;97.20;;;;;;5363579;26;20527;-68
2024/04/11 07:58:56;;;;;;;5.30;4.80;;;15.70;96.70;;;;;;5346592;26;20805;-68
2024/04/11 08:01:31;;;;;;;8.67;4.80;;;15.80;95.80;;;;;;5333883;26;20476;-68
2024/04/11 08:04:00;;;;;;;9.40;5.47;;;16.00;96.00;;;;;;5310940;26;20508;-69
2024/04/11 08:06:29;;;;;;;9.00;4.30;;;16.00;96.00;;;;;;5321539;26;21451;-71
2024/04/11 08:08:56;;;;;;;6.90;5.13;;;16.00;95.20;;;;;;5344919;26;20444;-67
2024/04/11 08:11:22;;;;;;;8.50;5.00;;;16.10;93.90;;;;;;5333798;26;20525;-68
2024/04/11 08:13:48;;;;;;;5.57;5.07;;;16.40;93.80;;;;;;5310380;26;20433;-69
2024/04/11 08:16:13;;;;;;;6.73;4.73;;;16.50;93.30;;;;;;5299121;26;21068;-71
2024/04/11 08:18:39;;;;;;;5.37;4.20;;;16.60;92.60;;;;;;5273699;27;20661;-68
2024/04/11 08:21:08;;;;;;;6.23;5.00;;;16.60;91.50;;;;;;5274550;27;20458;-68
2024/04/11 08:23:42;;;;;;;6.47;5.37;;;16.80;91.80;;;;;;5290136;27;20222;-68
2024/04/11 08:26:12;;;;;;;5.80;5.20;;;16.60;91.60;;;;;;5309026;26;20459;-68
2024/04/11 08:28:37;;;;;;;5.53;4.70;;;16.50;92.60;;;;;;5309333;26;21019;-68
2024/04/11 08:31:07;;;;;;;6.00;5.20;;;16.70;90.60;;;;;;5309564;27;20533;-68
2024/04/11 08:33:36;;;;;;;12.87;6.03;;;17.00;90.30;;;;;;5311161;27;20331;-68
2024/04/11 08:36:09;;;;;;;6.93;5.70;;;17.10;90.10;;;;;;5310784;26;20787;-69
2024/04/11 08:38:43;;;;;;;7.57;6.30;;;17.00;90.40;;;;;;5309770;26;20501;-68
2024/04/11 08:41:10;;;;;;;6.97;5.60;;;16.70;90.30;;;;;;5308584;27;20488;-69
2024/04/11 08:43:36;;;;;;;9.97;5.90;;;16.50;90.10;;;;;;5276469;27;20836;-68
2024/04/11 08:46:08;;;;;;;6.40;5.50;;;16.20;90.20;;;;;;5276297;27;20545;-68
2024/04/11 08:48:37;;;;;;;5.57;4.43;;;16.30;89.90;;;;;;5308335;26;20226;-69
2024/04/11 08:51:10;;;;;;;4.30;3.80;;;16.50;87.80;;;;;;5287686;26;21003;-68
2024/04/11 08:53:39;;;;;;;8.80;5.37;;;16.50;85.70;;;;;;5282459;27;20572;-68
2024/04/11 08:56:08;;;;;;;6.70;5.40;;;16.60;87.70;;;;;;5310229;26;20448;-69
2024/04/11 08:58:38;;;;;;;5.63;4.63;;;17.30;85.70;;;;;;5309574;26;20505;-69
2024/04/11 09:01:07;;;;;;;6.13;4.50;;;18.20;83.20;;;;;;5313861;26;20465;-69
2024/04/11 09:03:35;;;;;;;7.60;3.87;;;18.80;78.30;;;;;;5310738;26;20456;-68
2024/04/11 09:06:01;;;;;;;5.80;5.20;;;19.30;76.30;;;;;;5312243;26;20976;-68
2024/04/11 09:08:28;;;;;;;6.30;5.67;;;19.80;73.30;;;;;;5294284;27;21015;-68
2024/04/11 09:10:55;;;;;;;7.53;4.97;;;19.90;72.90;;;;;;5308549;26;20503;-67
2024/04/11 09:13:23;;;;;;;7.43;4.83;;;20.20;68.10;;;;;;5312713;27;20460;-68
2024/04/11 09:16:04;;;;;;;5.30;4.23;;;20.00;66.50;;;;;;5313221;27;21097;-68
2024/04/11 09:18:30;;;;;;;6.47;3.97;;;20.10;62.60;;;;;;5303779;26;21065;-69
2024/04/11 09:21:05;;;;;;;4.93;4.43;;;20.50;60.20;;;;;;5312000;26;20477;-68
2024/04/11 09:23:43;;;;;;;6.90;3.67;;;20.30;59.10;;;;;;5312761;26;20444;-69
2024/04/11 09:26:10;;;;;;;8.30;3.93;;;21.10;61.80;;;;;;5278724;27;20498;-71
2024/04/11 09:28:37;;;;;;;3.70;3.40;;;22.30;54.10;;;;;;5277170;27;20450;-70
2024/04/11 09:31:04;;;;;;;7.10;4.33;;;22.70;48.60;;;;;;5277572;26;21003;-72
2024/04/11 09:33:34;;;;;;;5.00;3.67;;;22.80;46.30;;;;;;5305666;26;20532;-68
2024/04/11 09:36:03;;;;;;;7.03;3.80;;;22.60;46.70;;;;;;5312986;26;20440;-68
2024/04/11 09:38:29;;;;;;;5.73;4.00;;;21.90;46.70;;;;;;5313935;26;20509;-68
2024/04/11 09:40:57;;;;;;;5.20;2.87;;;22.30;45.20;;;;;;5313557;26;20797;-68
2024/04/11 09:43:29;;;;;;;3.13;2.83;;;23.10;43.00;;;;;;5294074;26;20462;-69
2024/04/11 09:46:04;;;;;;;3.40;2.70;;;24.30;38.80;;;;;;5278841;27;21341;-69
2024/04/11 09:48:31;;;;;;;5.50;3.17;;;25.20;36.40;;;;;;5277659;27;20876;-69
2024/04/11 09:50:58;;;;;;;8.03;3.60;;;26.00;34.30;;;;;;5278239;27;20446;-69
2024/04/11 09:53:27;;;;;;;5.43;2.70;;;26.30;31.70;;;;;;5278154;27;21019;-69
2024/04/11 09:55:59;;;;;;;4.93;2.70;;;26.90;29.30;;;;;;5302150;27;20517;-70
2024/04/11 09:58:28;;;;;;;3.57;3.10;;;27.30;27.40;;;;;;5311948;26;21045;-67
2024/04/11 10:01:05;;;;;;;4.60;3.00;;;27.60;25.90;;;;;;5312082;26;20542;-69
2024/04/11 10:03:39;;;;;;;4.53;2.90;;;28.50;24.40;;;;;;5310903;26;20522;-67
2024/04/11 10:06:13;;;;;;;3.03;2.60;;;29.10;23.00;;;;;;5324400;26;20507;-69
2024/04/11 10:08:42;;;;;;;3.90;2.40;;;28.60;22.20;;;;;;5345979;26;20492;-68
2024/04/11 10:11:12;;;;;;;4.77;2.40;;;27.30;21.40;;;;;;5340426;26;20524;-67
2024/04/11 10:13:41;;;;;;;6.03;2.63;;;26.50;22.50;;;;;;5309625;26;20544;-67
2024/04/11 10:16:14;;;;;;;4.50;2.33;;;27.50;22.30;;;;;;5278095;27;20451;-69
2024/04/11 10:18:51;;;;;;;2.50;2.20;;;27.10;22.70;;;;;;5279406;27;20522;-69
2024/04/11 10:21:27;;;;;;;3.33;2.83;;;27.60;21.00;;;;;;5275432;27;20533;-68
2024/04/11 10:23:54;;;;;;;2.80;2.50;;;27.10;20.90;;;;;;5275694;27;21285;-70
2024/04/11 10:26:32;;;;;;;4.60;3.37;;;26.10;21.60;;;;;;5278345;27;20467;-70
2024/04/11 10:29:14;;;;;;;4.33;2.93;;;26.40;21.40;;;;;;5339052;26;20467;-72
2024/04/11 10:31:44;;;;;;;4.30;2.77;;;27.80;21.20;;;;;;5346356;26;20530;-71
2024/04/11 10:34:19;;;;;;;3.00;2.70;;;29.60;20.10;;;;;;5323192;26;20813;-70
2024/04/11 10:36:53;;;;;;;3.30;2.43;;;31.10;18.50;;;;;;5310901;26;21001;-71
2024/04/11 10:39:18;;;;;;;4.30;3.40;;;30.20;17.50;;;;;;5310023;27;20949;-71
2024/04/11 10:41:45;;;;;;;4.83;2.83;;;28.40;19.40;;;;;;5311725;26;20465;-71
2024/04/11 10:44:12;;;;;;;2.80;2.60;;;27.90;19.30;;;;;;5303950;26;20226;-71
2024/04/11 10:46:38;;;;;;;4.87;3.30;;;27.70;19.00;;;;;;5311092;26;20517;-71
2024/04/11 10:49:15;;;;;;;3.07;2.50;;;28.50;19.10;;;;;;5309302;26;20468;-71
2024/04/11 10:51:47;;;;;;;4.33;2.40;;;28.50;18.50;;;;;;5288012;26;20551;-71
2024/04/11 10:54:13;;;;;;;3.27;2.80;;;29.60;18.50;;;;;;5277548;27;20442;-71
2024/04/11 10:56:44;;;;;;;2.73;2.13;;;30.20;17.60;;;;;;5286888;26;20464;-72
2024/04/11 10:59:18;;;;;;;4.23;2.80;;;31.20;16.90;;;;;;5311225;26;20977;-72
2024/04/11 11:01:50;;;;;;;4.50;2.53;;;31.60;15.70;;;;;;5310542;26;20652;-71
2024/04/11 11:04:21;;;;;;;4.13;2.93;;;31.10;16.30;;;;;;5299918;26;20466;-71
2024/04/11 11:06:51;;;;;;;10.27;6.20;;;31.40;15.80;;;;;;5282210;26;20507;-72
2024/04/11 11:09:17;;;;;;;3.80;3.13;;;30.20;16.20;;;;;;5323881;26;20452;-72
2024/04/11 11:11:44;;;;;;;2.90;2.33;;;30.20;15.80;;;;;;5322401;26;20465;-72
2024/04/11 11:14:17;;;;;;;4.47;3.23;;;30.50;15.90;;;;;;5311263;26;20522;-73
2024/04/11 11:16:50;;;;;;;3.40;3.00;;;31.10;15.20;;;;;;5310368;26;20441;-73
2024/04/11 11:19:17;;;;;;;4.57;2.90;;;31.10;15.30;;;;;;5307904;26;20591;-72
2024/04/11 11:21:59;;;;;;;3.27;2.93;;;30.60;14.70;;;;;;5311413;26;20528;-72
2024/04/11 11:24:27;;;;;;;3.67;2.30;;;30.70;15.10;;;;;;5309173;27;20524;-72
2024/04/11 11:26:57;;;;;;;3.57;2.33;;;30.60;14.90;;;;;;5310406;26;20499;-72
2024/04/11 11:29:27;;;;;;;2.80;2.47;;;31.40;14.70;;;;;;5310063;26;20885;-72
2024/04/11 11:32:03;;;;;;;4.27;2.37;;;32.20;13.10;;;;;;5310436;26;20990;-71
2024/04/11 11:34:35;;;;;;;2.80;2.60;;;30.60;13.90;;;;;;5303359;26;20457;-71
2024/04/11 11:37:01;;;;;;;4.77;2.67;;;31.50;13.20;;;;;;5276119;27;20439;-72
2024/04/11 11:39:28;;;;;;;5.43;2.97;;;32.10;13.00;;;;;;5290224;26;20919;-71
2024/04/11 11:42:08;;;;;;;3.60;2.83;;;31.80;12.10;;;;;;5277048;27;20586;-69
2024/04/11 11:47:33;;;;;;;3.20;2.83;;;34.40;11.30;;;;;;5275538;27;20558;-70
2024/04/11 11:50:07;;;;;;;2.60;2.40;;;35.70;10.30;;;;;;5301560;26;20513;-70
2024/04/11 11:52:35;;;;;;;7.27;2.90;;;34.80;10.10;;;;;;5276991;26;20580;-70
2024/04/11 11:55:03;;;;;;;4.70;2.43;;;34.70;10.10;;;;;;5276614;27;20451;-70
2024/04/11 11:57:39;;;;;;;4.47;2.70;;;34.20;9.90;;;;;;5275746;27;20443;-70
2024/04/11 12:00:19;;;;;;;3.23;2.70;;;34.20;9.70;;;;;;5284414;26;20462;-71
2024/04/11 12:02:52;;;;;;;4.13;2.60;;;35.10;9.60;;;;;;5289159;27;20447;-70
2024/04/11 12:05:23;;;;;;;3.40;3.10;;;34.20;9.20;;;;;;5292857;27;21261;-70
2024/04/11 12:07:49;;;;;;;2.70;2.50;;;33.70;9.60;;;;;;5290174;26;20509;-70
2024/04/11 12:10:16;;;;;;;3.67;3.13;;;33.40;9.50;;;;;;5310799;26;20457;-69
2024/04/11 12:12:43;;;;;;;4.67;2.70;;;33.10;9.00;;;;;;5285866;26;20518;-71
2024/04/11 12:15:09;;;;;;;3.23;2.93;;;32.90;9.20;;;;;;5276236;27;20547;-71
2024/04/11 12:17:35;;;;;;;3.87;3.53;;;34.00;9.40;;;;;;5275316;27;20450;-71
2024/04/11 12:20:07;;;;;;;3.50;3.20;;;32.20;9.20;;;;;;5283906;26;20694;-71
2024/04/11 12:22:35;;;;;;;3.83;3.53;;;32.70;10.10;;;;;;5310270;26;20576;-72
2024/04/11 12:25:02;;;;;;;3.47;3.07;;;34.30;9.50;;;;;;5310203;26;20629;-72
2024/04/11 12:27:28;;;;;;;5.20;2.77;;;34.50;9.40;;;;;;5309079;26;20487;-72
2024/04/11 12:29:58;;;;;;;5.47;3.00;;;34.80;9.10;;;;;;5309414;27;20453;-71
2024/04/11 12:32:25;;;;;;;4.33;2.87;;;35.30;8.90;;;;;;5310530;26;20573;-71
2024/04/11 12:34:55;;;;;;;3.30;3.10;;;36.00;8.10;;;;;;5308130;26;20457;-71
2024/04/11 12:37:24;;;;;;;5.63;3.30;;;36.30;8.00;;;;;;5308657;27;20453;-70
2024/04/11 12:39:56;;;;;;;4.50;3.10;;;36.70;7.60;;;;;;5310542;26;20497;-71
2024/04/11 12:42:29;;;;;;;3.23;2.20;;;37.20;7.50;;;;;;5301021;26;20526;-71
2024/04/11 12:44:58;;;;;;;3.80;2.50;;;38.00;7.00;;;;;;5276108;27;20562;-71
2024/04/11 12:50:13;;;;;;;2.60;2.37;;;38.10;6.60;;;;;;5276921;27;20631;-71
2024/04/11 12:52:49;;;;;;;5.40;3.33;;;38.40;6.20;;;;;;5300321;26;20870;-71
2024/04/11 12:55:24;;;;;;;4.40;2.50;;;38.50;5.60;;;;;;5309110;26;20484;-72
2024/04/11 12:57:51;;;;;;;5.83;2.50;;;38.80;5.90;;;;;;5307369;27;20491;-71
2024/04/11 13:00:35;;;;;;;3.53;2.73;;;38.70;5.90;;;;;;5308644;26;20545;-71
2024/04/11 13:03:15;;;;;;;2.50;2.30;;;37.70;6.30;;;;;;5309674;26;20481;-72
2024/04/11 13:05:51;;;;;;;3.90;3.37;;;36.00;6.60;;;;;;5307007;26;20548;-72